BBC Congo — V2EL3 — position and weather

sailwx.info

Track history (hours):
 
Tides and Currents Weather Stations Pressure Air Temp Water Temp Dewpoint Dewpoint Depression Visibility Wind Speed Wind Dir Waves Ship Positions

BBC Congo

Last reported at 2016-Jun-13 10:27 UTC. Time now 2016-Aug-29 05:27 UTC.
Position N 36°00' E 124°07'.
Warning: this ship's position is months out of date.

Length 144 m; draft 7.6 m.

Type: Ship. MMSI: 305466000.

Date/timePositionNaut miles runAvg speedWind from/ knotsBaromVisibWave heightAir tempDewpointWater temp
2016-Jun-13 10:27N 36°00' E 124°07'1414.2
2016-Jun-13 09:29N 36°13' E 123°59'1614.4
2016-Jun-13 08:23N 36°27' E 123°51'1214.4
2016-Jun-13 07:33N 36°38' E 123°44'1414.5
2016-Jun-13 06:33N 36°51' E 123°36'1414.3
2016-Jun-13 05:32N 37°04' E 123°28'1313.5
2016-Jun-13 04:33N 37°15' E 123°20'1313.4
2016-Jun-13 03:33N 37°25' E 123°09'1312.7
2016-Jun-13 02:33N 37°35' E 122°59'1413.5
2016-Jun-13 01:33N 37°42' E 122°44'1413.9
2016-Jun-13 00:33N 37°49' E 122°29'1614.1
2016-Jun-12 23:27N 37°57' E 122°12'1314.0
2016-Jun-12 22:33N 38°03' E 121°58'1413.9
2016-Jun-12 21:31N 38°11' E 121°42'1313.8
2016-Jun-12 20:33N 38°18' E 121°28'1413.9
2016-Jun-12 19:33N 38°25' E 121°13'1414.0
2016-Jun-12 18:32N 38°33' E 120°57'3614.7
2016-Jun-12 16:04N 38°59' E 120°26'814.7
2016-Jun-12 15:33N 39°05' E 120°20'4113.7
2016-Jun-12 12:32N 39°40' E 119°50'1313.4
2016-Jun-12 11:33N 39°50' E 119°39'6 5.6
2016-Jun-12 10:32N 39°55' E 119°35'0 0.0
2016-Jun-12 09:32N 39°55' E 119°35'0 0.0
2016-Jun-12 08:32N 39°55' E 119°35'0 0.0
2016-Jun-12 07:26N 39°55' E 119°35'0 0.0
2016-Jun-12 06:32N 39°55' E 119°35'0 0.0
2016-Jun-12 04:32N 39°55' E 119°35'0 0.0
2016-Jun-12 03:32N 39°55' E 119°35'0 0.0
2016-Jun-12 02:26N 39°55' E 119°35'0 0.0
2016-Jun-12 01:32N 39°55' E 119°35'0 0.0
2016-Jun-12 00:32N 39°55' E 119°35'0 0.0
2016-Jun-11 23:32N 39°55' E 119°35'0 0.0
2016-Jun-11 21:32N 39°55' E 119°35'0 0.0
2016-Jun-11 20:20N 39°55' E 119°35'0 0.0
2016-Jun-11 19:32N 39°55' E 119°35'0 0.0
2016-Jun-11 18:56N 39°55' E 119°35'0 0.0
2016-Jun-11 18:32N 39°55' E 119°35'0 0.0
2016-Jun-11 17:20N 39°55' E 119°35'0 0.0
2016-Jun-11 16:32N 39°55' E 119°35'0 0.0
2016-Jun-11 15:32N 39°55' E 119°35'0 0.0
2016-Jun-11 13:26N 39°55' E 119°35'0 0.0
2016-Jun-11 12:26N 39°55' E 119°35'0 0.0
2016-Jun-11 11:20N 39°55' E 119°35'0 0.0
2016-Jun-11 10:32N 39°55' E 119°35'0 0.0
2016-Jun-11 09:20N 39°55' E 119°35'2 2.3
2016-Jun-11 08:33N 39°53' E 119°37'7 1.3
2016-Jun-11 03:28N 39°47' E 119°39'0 0.0
2016-Jun-10 21:28N 39°47' E 119°39'4 3.6
2016-Jun-10 20:29N 39°44' E 119°42'96 7.4
2016-Jun-10 07:33N 38°53' E 117°57'9 7.7
2016-Jun-10 06:20N 38°56' E 117°46'0 0.0
2016-Jun-10 05:20N 38°56' E 117°46'0 0.0
2016-Jun-10 04:32N 38°56' E 117°46'0 0.0
2016-Jun-10 03:32N 38°56' E 117°46'0 0.0
2016-Jun-10 02:32N 38°56' E 117°46'0 0.0
2016-Jun-10 01:32N 38°56' E 117°46'0 0.0
2016-Jun-10 00:32N 38°56' E 117°46'0 0.0
2016-Jun-09 23:32N 38°56' E 117°46'0 0.0
2016-Jun-09 22:32N 38°56' E 117°46'0 0.0
2016-Jun-09 21:20N 38°56' E 117°46'0 0.0
2016-Jun-09 20:32N 38°56' E 117°46'0 0.0
2016-Jun-09 19:26N 38°56' E 117°46'0 0.0
2016-Jun-09 18:26N 38°56' E 117°46'0 0.0
2016-Jun-09 17:14N 38°56' E 117°46'0 0.0
2016-Jun-09 15:14N 38°56' E 117°46'0 0.0
2016-Jun-09 14:32N 38°56' E 117°46'0 0.0
2016-Jun-09 13:32N 38°56' E 117°46'0 0.0
2016-Jun-09 12:20N 38°56' E 117°46'0 0.0
2016-Jun-09 11:08N 38°56' E 117°46'0 0.0
2016-Jun-09 09:26N 38°56' E 117°46'0 0.0
2016-Jun-09 08:32N 38°56' E 117°46'0 0.0
2016-Jun-09 07:32N 38°56' E 117°46'0 0.0
2016-Jun-09 06:32N 38°56' E 117°46'0 0.0
2016-Jun-09 05:32N 38°56' E 117°46'0 0.0
2016-Jun-09 04:32N 38°56' E 117°46'0 0.0
2016-Jun-09 03:32N 38°56' E 117°46'0 0.0
2016-Jun-09 02:32N 38°56' E 117°46'0 0.0
2016-Jun-09 01:32N 38°56' E 117°46'0 0.0
2016-Jun-09 00:32N 38°56' E 117°46'0 0.0
2016-Jun-08 22:26N 38°56' E 117°46'0 0.0
2016-Jun-08 21:32N 38°56' E 117°46'0 0.0
2016-Jun-08 20:32N 38°56' E 117°46'0 0.0
2016-Jun-08 19:08N 38°56' E 117°46'0 0.0
2016-Jun-08 18:32N 38°56' E 117°46'0 0.0
2016-Jun-08 17:20N 38°56' E 117°46'0 0.0
2016-Jun-08 16:32N 38°56' E 117°46'0 0.0
2016-Jun-08 15:26N 38°56' E 117°46'0 0.0
2016-Jun-08 14:32N 38°56' E 117°46'0 0.0
2016-Jun-08 13:32N 38°56' E 117°46'0 0.0
2016-Jun-08 12:32N 38°56' E 117°46'0 0.0
2016-Jun-08 11:26N 38°56' E 117°46'0 0.0
2016-Jun-08 10:33N 38°56' E 117°46'6 5.5
2016-Jun-08 09:31N 38°55' E 117°53'9 9.5
2016-Jun-08 08:33N 38°53' E 118°05'154 3.8
2016-Jun-06 16:19N 38°25' E 121°18'4514.0
2016-Jun-06 13:08N 37°58' E 122°04'1314.2
2016-Jun-06 12:14N 37°50' E 122°16'1014.7
2016-Jun-06 11:32N 37°44' E 122°27'1515.2
2016-Jun-06 10:33N 37°37' E 122°43'1515.2
2016-Jun-06 09:32N 37°23' E 122°53'1515.3
2016-Jun-06 08:33N 37°08' E 122°53'1414.2
2016-Jun-06 07:33N 36°54' E 122°52'1312.9
2016-Jun-06 06:33N 36°42' E 122°46'1312.7
2016-Jun-06 05:33N 36°35' E 122°33'  
Track history (hours):
 
Tides and Currents Weather Stations Pressure Air Temp Water Temp Dewpoint Dewpoint Depression Visibility Wind Speed Wind Dir Waves Ship Positions

BBC Congo

Last reported at 2016-Jun-13 10:27 UTC. Time now 2016-Aug-29 05:27 UTC.
Position N 36°00' E 124°07'.
Warning: this ship's position is months out of date.

Length 144 m; draft 7.6 m.

Type: Ship. MMSI: 305466000.

Date/timePositionNaut miles runAvg speedWind from/ knotsBaromVisibWave heightAir tempDewpointWater temp
2016-Jun-13 10:27N 36°00' E 124°07'1414.2
2016-Jun-13 09:29N 36°13' E 123°59'1614.4
2016-Jun-13 08:23N 36°27' E 123°51'1214.4
2016-Jun-13 07:33N 36°38' E 123°44'1414.5
2016-Jun-13 06:33N 36°51' E 123°36'1414.3
2016-Jun-13 05:32N 37°04' E 123°28'1313.5
2016-Jun-13 04:33N 37°15' E 123°20'1313.4
2016-Jun-13 03:33N 37°25' E 123°09'1312.7
2016-Jun-13 02:33N 37°35' E 122°59'1413.5
2016-Jun-13 01:33N 37°42' E 122°44'1413.9
2016-Jun-13 00:33N 37°49' E 122°29'1614.1
2016-Jun-12 23:27N 37°57' E 122°12'1314.0
2016-Jun-12 22:33N 38°03' E 121°58'1413.9
2016-Jun-12 21:31N 38°11' E 121°42'1313.8
2016-Jun-12 20:33N 38°18' E 121°28'1413.9
2016-Jun-12 19:33N 38°25' E 121°13'1414.0
2016-Jun-12 18:32N 38°33' E 120°57'3614.7
2016-Jun-12 16:04N 38°59' E 120°26'814.7
2016-Jun-12 15:33N 39°05' E 120°20'4113.7
2016-Jun-12 12:32N 39°40' E 119°50'1313.4
2016-Jun-12 11:33N 39°50' E 119°39'6 5.6
2016-Jun-12 10:32N 39°55' E 119°35'0 0.0
2016-Jun-12 09:32N 39°55' E 119°35'0 0.0
2016-Jun-12 08:32N 39°55' E 119°35'0 0.0
2016-Jun-12 07:26N 39°55' E 119°35'0 0.0
2016-Jun-12 06:32N 39°55' E 119°35'0 0.0
2016-Jun-12 04:32N 39°55' E 119°35'0 0.0
2016-Jun-12 03:32N 39°55' E 119°35'0 0.0
2016-Jun-12 02:26N 39°55' E 119°35'0 0.0
2016-Jun-12 01:32N 39°55' E 119°35'0 0.0
2016-Jun-12 00:32N 39°55' E 119°35'0 0.0
2016-Jun-11 23:32N 39°55' E 119°35'0 0.0
2016-Jun-11 21:32N 39°55' E 119°35'0 0.0
2016-Jun-11 20:20N 39°55' E 119°35'0 0.0
2016-Jun-11 19:32N 39°55' E 119°35'0 0.0
2016-Jun-11 18:56N 39°55' E 119°35'0 0.0
2016-Jun-11 18:32N 39°55' E 119°35'0 0.0
2016-Jun-11 17:20N 39°55' E 119°35'0 0.0
2016-Jun-11 16:32N 39°55' E 119°35'0 0.0
2016-Jun-11 15:32N 39°55' E 119°35'0 0.0
2016-Jun-11 13:26N 39°55' E 119°35'0 0.0
2016-Jun-11 12:26N 39°55' E 119°35'0 0.0
2016-Jun-11 11:20N 39°55' E 119°35'0 0.0
2016-Jun-11 10:32N 39°55' E 119°35'0 0.0
2016-Jun-11 09:20N 39°55' E 119°35'2 2.3
2016-Jun-11 08:33N 39°53' E 119°37'7 1.3
2016-Jun-11 03:28N 39°47' E 119°39'0 0.0
2016-Jun-10 21:28N 39°47' E 119°39'4 3.6
2016-Jun-10 20:29N 39°44' E 119°42'96 7.4
2016-Jun-10 07:33N 38°53' E 117°57'9 7.7
2016-Jun-10 06:20N 38°56' E 117°46'0 0.0
2016-Jun-10 05:20N 38°56' E 117°46'0 0.0
2016-Jun-10 04:32N 38°56' E 117°46'0 0.0
2016-Jun-10 03:32N 38°56' E 117°46'0 0.0
2016-Jun-10 02:32N 38°56' E 117°46'0 0.0
2016-Jun-10 01:32N 38°56' E 117°46'0 0.0
2016-Jun-10 00:32N 38°56' E 117°46'0 0.0
2016-Jun-09 23:32N 38°56' E 117°46'0 0.0
2016-Jun-09 22:32N 38°56' E 117°46'0 0.0
2016-Jun-09 21:20N 38°56' E 117°46'0 0.0
2016-Jun-09 20:32N 38°56' E 117°46'0 0.0
2016-Jun-09 19:26N 38°56' E 117°46'0 0.0
2016-Jun-09 18:26N 38°56' E 117°46'0 0.0
2016-Jun-09 17:14N 38°56' E 117°46'0 0.0
2016-Jun-09 15:14N 38°56' E 117°46'0 0.0
2016-Jun-09 14:32N 38°56' E 117°46'0 0.0
2016-Jun-09 13:32N 38°56' E 117°46'0 0.0
2016-Jun-09 12:20N 38°56' E 117°46'0 0.0
2016-Jun-09 11:08N 38°56' E 117°46'0 0.0
2016-Jun-09 09:26N 38°56' E 117°46'0 0.0
2016-Jun-09 08:32N 38°56' E 117°46'0 0.0
2016-Jun-09 07:32N 38°56' E 117°46'0 0.0
2016-Jun-09 06:32N 38°56' E 117°46'0 0.0
2016-Jun-09 05:32N 38°56' E 117°46'0 0.0
2016-Jun-09 04:32N 38°56' E 117°46'0 0.0
2016-Jun-09 03:32N 38°56' E 117°46'0 0.0
2016-Jun-09 02:32N 38°56' E 117°46'0 0.0
2016-Jun-09 01:32N 38°56' E 117°46'0 0.0
2016-Jun-09 00:32N 38°56' E 117°46'0 0.0
2016-Jun-08 22:26N 38°56' E 117°46'0 0.0
2016-Jun-08 21:32N 38°56' E 117°46'0 0.0
2016-Jun-08 20:32N 38°56' E 117°46'0 0.0
2016-Jun-08 19:08N 38°56' E 117°46'0 0.0
2016-Jun-08 18:32N 38°56' E 117°46'0 0.0
2016-Jun-08 17:20N 38°56' E 117°46'0 0.0
2016-Jun-08 16:32N 38°56' E 117°46'0 0.0
2016-Jun-08 15:26N 38°56' E 117°46'0 0.0
2016-Jun-08 14:32N 38°56' E 117°46'0 0.0
2016-Jun-08 13:32N 38°56' E 117°46'0 0.0
2016-Jun-08 12:32N 38°56' E 117°46'0 0.0
2016-Jun-08 11:26N 38°56' E 117°46'0 0.0
2016-Jun-08 10:33N 38°56' E 117°46'6 5.5
2016-Jun-08 09:31N 38°55' E 117°53'9 9.5
2016-Jun-08 08:33N 38°53' E 118°05'154 3.8
2016-Jun-06 16:19N 38°25' E 121°18'4514.0
2016-Jun-06 13:08N 37°58' E 122°04'1314.2
2016-Jun-06 12:14N 37°50' E 122°16'1014.7
2016-Jun-06 11:32N 37°44' E 122°27'1515.2
2016-Jun-06 10:33N 37°37' E 122°43'1515.2
2016-Jun-06 09:32N 37°23' E 122°53'1515.3
2016-Jun-06 08:33N 37°08' E 122°53'1414.2
2016-Jun-06 07:33N 36°54' E 122°52'1312.9
2016-Jun-06 06:33N 36°42' E 122°46'1312.7
2016-Jun-06 05:33N 36°35' E 122°33'  

Dump ship's entire track history